createdAt,value
2019-06-27T00:01:48.967Z,14.85
2019-06-27T00:04:17.743Z,14.88
2019-06-27T00:06:46.459Z,14.88
2019-06-27T00:09:16.209Z,14.92
2019-06-27T00:11:44.949Z,15.02
2019-06-27T00:14:13.640Z,15.04
2019-06-27T00:16:42.392Z,15.19
2019-06-27T00:19:11.088Z,15.25
2019-06-27T00:21:39.850Z,15.25
2019-06-27T00:24:08.553Z,15.25
2019-06-27T00:26:37.639Z,15.27
2019-06-27T00:29:06.520Z,15.35
2019-06-27T00:31:35.299Z,15.37
2019-06-27T00:34:03.972Z,15.35
2019-06-27T00:36:32.761Z,15.37
2019-06-27T00:39:01.540Z,15.38
2019-06-27T00:41:30.325Z,15.36
2019-06-27T00:43:59.143Z,15.30
2019-06-27T00:46:28.171Z,15.29
2019-06-27T00:48:57.209Z,15.33
2019-06-27T00:51:26.168Z,15.34
2019-06-27T00:53:54.912Z,15.34
2019-06-27T00:56:23.855Z,15.33
2019-06-27T00:58:52.885Z,15.37
2019-06-27T01:01:21.885Z,15.33
2019-06-27T01:03:50.561Z,15.30
2019-06-27T01:06:19.565Z,15.31
2019-06-27T01:08:48.336Z,15.33
2019-06-27T01:11:17.148Z,15.34
2019-06-27T01:13:46.107Z,15.38
2019-06-27T01:16:14.915Z,15.38
2019-06-27T01:18:43.665Z,15.41
2019-06-27T01:21:12.672Z,15.43
2019-06-27T01:23:44.238Z,15.46
2019-06-27T01:26:12.446Z,15.50
2019-06-27T01:28:41.199Z,15.53
2019-06-27T01:31:09.863Z,15.53
2019-06-27T01:33:38.560Z,15.58
2019-06-27T01:36:07.296Z,15.60
2019-06-27T01:38:36.251Z,15.62
2019-06-27T01:41:05.070Z,15.63
2019-06-27T01:43:33.982Z,15.66
2019-06-27T01:46:02.744Z,15.69
2019-06-27T01:48:31.683Z,15.73
2019-06-27T01:51:00.689Z,15.77
2019-06-27T01:53:29.377Z,15.75
2019-06-27T01:55:58.407Z,15.78
2019-06-27T01:58:27.187Z,15.74
2019-06-27T02:00:55.876Z,15.73
2019-06-27T02:03:24.637Z,15.69
2019-06-27T02:05:53.341Z,15.67
2019-06-27T02:08:22.090Z,15.62
2019-06-27T02:10:50.799Z,15.56
2019-06-27T02:13:19.543Z,15.53
2019-06-27T02:15:48.361Z,15.43
2019-06-27T02:18:17.149Z,15.39
2019-06-27T02:20:46.180Z,15.27
2019-06-27T02:23:16.019Z,15.20
2019-06-27T02:25:44.900Z,15.15
2019-06-27T02:28:13.566Z,15.18
2019-06-27T02:30:43.263Z,15.10
2019-06-27T02:33:12.200Z,15.02
2019-06-27T02:35:41.396Z,15.08
2019-06-27T02:38:10.206Z,15.00
2019-06-27T02:40:39.042Z,14.94
2019-06-27T02:43:07.726Z,14.96
2019-06-27T02:45:36.526Z,14.94
2019-06-27T02:48:05.500Z,14.90
2019-06-27T02:50:34.146Z,14.93
2019-06-27T02:53:02.978Z,14.83
2019-06-27T02:55:31.976Z,14.76
2019-06-27T02:58:00.640Z,14.71
2019-06-27T03:00:29.566Z,14.68
2019-06-27T03:02:58.352Z,14.65
2019-06-27T03:05:27.193Z,14.66
2019-06-27T03:07:55.962Z,14.70
2019-06-27T03:10:24.719Z,14.74
2019-06-27T03:12:53.779Z,14.81
2019-06-27T03:15:22.485Z,14.87
2019-06-27T03:17:51.143Z,14.92
2019-06-27T03:20:19.981Z,14.97
2019-06-27T03:22:48.677Z,15.01
2019-06-27T03:25:17.508Z,15.04
2019-06-27T03:27:46.569Z,15.04
2019-06-27T03:30:15.510Z,15.03
2019-06-27T03:32:44.319Z,15.01
2019-06-27T03:35:13.230Z,15.02
2019-06-27T03:37:41.975Z,15.04
2019-06-27T03:40:10.808Z,14.99
2019-06-27T03:42:39.831Z,14.99
2019-06-27T03:45:15.095Z,14.94
2019-06-27T03:47:40.068Z,14.91
2019-06-27T03:50:09.278Z,14.85
2019-06-27T03:52:38.281Z,15.00
2019-06-27T03:55:07.207Z,14.96
2019-06-27T03:57:35.884Z,14.95
2019-06-27T04:00:05.289Z,15.02
2019-06-27T04:02:34.083Z,14.95
2019-06-27T04:05:02.870Z,14.99
2019-06-27T04:07:31.820Z,15.11
2019-06-27T04:10:00.529Z,15.13
2019-06-27T04:12:29.310Z,15.00
2019-06-27T04:14:58.066Z,15.03
2019-06-27T04:17:26.827Z,15.02
2019-06-27T04:19:55.493Z,15.02
2019-06-27T04:22:24.582Z,15.05
2019-06-27T04:24:53.540Z,15.06
2019-06-27T04:27:22.309Z,15.05
2019-06-27T04:29:51.008Z,15.14
2019-06-27T04:32:20.027Z,15.24
2019-06-27T04:34:48.971Z,15.36
2019-06-27T04:37:18.066Z,15.47
2019-06-27T04:39:46.984Z,15.51
2019-06-27T04:42:15.773Z,15.47
2019-06-27T04:44:44.779Z,15.54
2019-06-27T04:47:13.749Z,15.59
2019-06-27T04:49:42.454Z,15.63
2019-06-27T04:52:11.152Z,15.55
2019-06-27T04:54:39.837Z,15.54
2019-06-27T04:57:08.572Z,15.59
2019-06-27T04:59:52.333Z,15.64
2019-06-27T05:02:07.937Z,15.80
2019-06-27T05:04:36.621Z,15.88
2019-06-27T05:07:05.468Z,16.02
2019-06-27T05:09:34.191Z,16.08
2019-06-27T05:12:02.951Z,16.08
2019-06-27T05:14:32.630Z,16.13
2019-06-27T05:17:01.639Z,16.25
2019-06-27T05:19:30.582Z,16.35
2019-06-27T05:21:59.345Z,16.42
2019-06-27T05:24:28.334Z,16.45
2019-06-27T05:26:57.315Z,16.52
2019-06-27T05:29:26.510Z,16.56
2019-06-27T05:31:55.495Z,16.74
2019-06-27T05:34:24.501Z,16.63
2019-06-27T05:36:53.263Z,16.68
2019-06-27T05:39:22.222Z,16.80
2019-06-27T05:41:51.002Z,16.80
2019-06-27T05:44:19.727Z,16.57
2019-06-27T05:46:48.430Z,16.17
2019-06-27T05:49:17.263Z,15.83
2019-06-27T05:51:45.957Z,15.54
2019-06-27T05:54:14.711Z,15.34
2019-06-27T05:56:43.636Z,15.13
2019-06-27T05:59:12.328Z,15.02
2019-06-27T06:01:41.039Z,14.88
2019-06-27T06:04:09.788Z,14.74
2019-06-27T06:06:38.530Z,14.50
2019-06-27T06:09:07.235Z,14.34
2019-06-27T06:11:36.001Z,14.35
2019-06-27T06:14:04.868Z,14.44
2019-06-27T06:16:33.554Z,14.53
2019-06-27T06:19:02.275Z,14.56
2019-06-27T06:21:30.981Z,14.62
2019-06-27T06:23:59.943Z,14.58
2019-06-27T06:26:28.934Z,14.60
2019-06-27T06:28:58.140Z,14.66
2019-06-27T06:31:26.944Z,14.67
2019-06-27T06:33:55.806Z,14.73
2019-06-27T06:36:24.870Z,14.76
2019-06-27T06:38:53.693Z,14.89
2019-06-27T06:41:22.423Z,15.01
2019-06-27T06:43:51.267Z,15.10
2019-06-27T06:46:20.717Z,15.16
2019-06-27T06:48:49.566Z,15.19
2019-06-27T06:51:18.452Z,15.20
2019-06-27T06:53:47.408Z,15.24
2019-06-27T06:56:19.597Z,15.28
2019-06-27T06:58:48.830Z,15.33
2019-06-27T07:01:17.587Z,15.40
2019-06-27T07:03:46.376Z,15.44
2019-06-27T07:06:15.075Z,15.52
2019-06-27T07:09:05.653Z,15.66
2019-06-27T07:11:34.392Z,15.66
2019-06-27T07:14:03.239Z,15.73
2019-06-27T07:16:32.056Z,15.73
2019-06-27T07:19:01.740Z,15.84
2019-06-27T07:21:30.529Z,15.92
2019-06-27T07:23:59.296Z,15.90
2019-06-27T07:26:28.081Z,15.93
2019-06-27T07:28:56.816Z,15.98
2019-06-27T07:31:26.095Z,15.98
2019-06-27T07:33:54.789Z,16.13
2019-06-27T07:36:23.481Z,16.05
2019-06-27T07:38:54.602Z,16.06
2019-06-27T07:41:23.369Z,16.09
2019-06-27T07:43:52.137Z,16.22
2019-06-27T07:46:25.469Z,16.30
2019-06-27T07:48:52.110Z,16.35
2019-06-27T07:51:22.216Z,16.44
2019-06-27T07:53:51.239Z,16.38
2019-06-27T07:56:20.063Z,16.41
2019-06-27T07:58:49.248Z,16.43
2019-06-27T08:01:34.125Z,16.51
2019-06-27T08:03:48.542Z,16.61
2019-06-27T08:06:17.614Z,16.81
2019-06-27T08:08:47.366Z,16.89
2019-06-27T08:11:16.168Z,16.77
2019-06-27T08:13:44.900Z,16.74
2019-06-27T08:16:16.236Z,16.86
2019-06-27T08:18:45.106Z,16.89
2019-06-27T08:21:14.129Z,17.02
2019-06-27T08:23:42.924Z,17.05
2019-06-27T08:26:11.640Z,17.06
2019-06-27T08:28:41.088Z,16.99
2019-06-27T08:31:10.292Z,17.02
2019-06-27T08:33:40.703Z,17.09
2019-06-27T08:36:11.085Z,17.19
2019-06-27T08:38:40.141Z,17.28
2019-06-27T08:41:09.150Z,17.30
2019-06-27T08:43:38.254Z,17.46
2019-06-27T08:46:12.939Z,17.55
2019-06-27T08:48:41.819Z,17.58
2019-06-27T08:51:10.523Z,17.47
2019-06-27T08:53:48.710Z,17.40
2019-06-27T08:56:17.449Z,17.38
2019-06-27T08:58:47.692Z,17.65
2019-06-27T09:01:16.564Z,17.86
2019-06-27T09:03:45.475Z,18.00
2019-06-27T09:06:14.205Z,18.06
2019-06-27T09:08:43.373Z,18.23
2019-06-27T09:11:12.162Z,18.28
2019-06-27T09:13:40.973Z,18.40
2019-06-27T09:16:11.140Z,18.59
2019-06-27T09:18:39.946Z,18.59
2019-06-27T09:21:16.046Z,18.52
2019-06-27T09:23:48.181Z,18.48
2019-06-27T09:26:18.555Z,18.43
2019-06-27T09:28:47.425Z,18.54
2019-06-27T09:31:16.288Z,18.73
2019-06-27T09:33:48.401Z,18.97
2019-06-27T09:36:20.715Z,19.20
2019-06-27T09:38:52.678Z,19.25
2019-06-27T09:41:21.948Z,19.25
2019-06-27T09:43:52.037Z,19.30
2019-06-27T09:46:24.116Z,19.39
2019-06-27T09:48:55.254Z,19.55
2019-06-27T09:51:24.444Z,19.76
2019-06-27T09:53:53.178Z,19.85
2019-06-27T09:56:22.066Z,19.87
2019-06-27T09:58:51.973Z,19.73
2019-06-27T10:01:20.773Z,19.74
2019-06-27T10:03:49.548Z,19.75
2019-06-27T10:06:18.409Z,19.83
2019-06-27T10:11:53.493Z,19.83
2019-06-27T10:14:25.697Z,20.05
2019-06-27T10:16:54.564Z,20.17
2019-06-27T10:19:23.430Z,20.47
2019-06-27T10:21:54.298Z,20.43
2019-06-27T10:24:29.289Z,20.53
2019-06-27T10:26:58.553Z,20.78
2019-06-27T10:29:27.618Z,20.92
2019-06-27T10:31:57.986Z,20.97
2019-06-27T10:34:28.073Z,21.19
2019-06-27T10:36:56.933Z,21.23
2019-06-27T10:39:25.763Z,21.31
2019-06-27T10:41:55.109Z,21.51
2019-06-27T10:44:23.993Z,21.61
2019-06-27T10:46:52.803Z,21.52
2019-06-27T10:49:21.741Z,21.56
2019-06-27T10:51:50.567Z,21.69
2019-06-27T10:54:20.706Z,21.76
2019-06-27T10:56:49.583Z,22.01
2019-06-27T10:59:18.466Z,22.16
2019-06-27T11:01:47.365Z,21.85
2019-06-27T11:04:16.530Z,21.74
2019-06-27T11:06:45.643Z,21.95
2019-06-27T11:09:23.845Z,21.90
2019-06-27T11:11:52.907Z,21.78
2019-06-27T11:14:21.672Z,21.93
2019-06-27T11:16:52.445Z,22.13
2019-06-27T11:19:21.163Z,22.22
2019-06-27T11:21:50.017Z,21.92
2019-06-27T11:24:18.769Z,22.36
2019-06-27T11:26:47.721Z,22.47
2019-06-27T11:29:16.565Z,22.47
2019-06-27T11:31:45.331Z,22.79
2019-06-27T11:34:14.361Z,23.17
2019-06-27T11:36:46.536Z,23.31
2019-06-27T11:39:16.146Z,23.33
2019-06-27T11:41:44.851Z,23.52
2019-06-27T11:44:13.632Z,23.51
2019-06-27T11:46:42.357Z,23.10
2019-06-27T11:49:11.089Z,23.63
2019-06-27T11:51:39.931Z,23.93
2019-06-27T11:54:09.016Z,24.04
2019-06-27T11:56:37.862Z,24.14
2019-06-27T11:59:06.959Z,24.33
2019-06-27T12:01:35.993Z,24.62
2019-06-27T12:04:05.039Z,24.47
2019-06-27T12:06:33.823Z,24.65
2019-06-27T12:09:04.927Z,24.69
2019-06-27T12:11:33.780Z,25.15
2019-06-27T12:14:02.708Z,25.90
2019-06-27T12:16:32.713Z,27.14
2019-06-27T12:19:01.485Z,29.13
2019-06-27T12:21:30.605Z,31.18
2019-06-27T12:23:59.687Z,32.72
2019-06-27T12:26:28.581Z,33.12
2019-06-27T12:28:58.032Z,33.61
2019-06-27T12:31:27.241Z,32.96
2019-06-27T12:34:06.378Z,33.12
2019-06-27T12:36:26.836Z,33.89
2019-06-27T12:38:55.580Z,34.69
2019-06-27T12:41:24.406Z,35.02
2019-06-27T12:43:53.192Z,34.79
2019-06-27T12:46:21.982Z,34.30
2019-06-27T12:48:50.746Z,34.60
2019-06-27T12:51:19.608Z,35.24
2019-06-27T12:53:49.721Z,36.04
2019-06-27T12:56:18.552Z,36.46
2019-06-27T12:58:47.599Z,36.63
2019-06-27T13:01:16.832Z,36.62
2019-06-27T13:03:45.898Z,33.90
2019-06-27T13:06:14.704Z,34.08
2019-06-27T13:08:44.156Z,34.86
2019-06-27T13:11:14.557Z,34.71
2019-06-27T13:13:43.260Z,33.89
2019-06-27T13:16:12.296Z,31.88
2019-06-27T13:18:46.992Z,32.11
2019-06-27T13:21:21.255Z,33.21
2019-06-27T13:23:50.301Z,34.46
2019-06-27T13:26:28.570Z,36.23
2019-06-27T13:29:00.498Z,36.23
2019-06-27T13:31:29.777Z,36.41
2019-06-27T13:33:58.552Z,36.46
2019-06-27T13:36:27.731Z,36.50
2019-06-27T13:38:56.515Z,37.76
2019-06-27T13:41:31.566Z,37.88
2019-06-27T13:44:00.496Z,38.12
2019-06-27T13:46:29.316Z,37.84
2019-06-27T13:48:58.084Z,39.01
2019-06-27T13:51:26.835Z,39.69
2019-06-27T13:53:55.819Z,39.17
2019-06-27T13:56:25.102Z,37.33
2019-06-27T13:58:54.052Z,36.34
2019-06-27T14:01:22.948Z,37.86
2019-06-27T14:03:51.818Z,38.05
2019-06-27T14:06:20.580Z,37.77
2019-06-27T14:08:49.712Z,38.39
2019-06-27T14:11:32.465Z,35.86
2019-06-27T14:14:11.359Z,37.59
2019-06-27T14:16:38.592Z,38.94
2019-06-27T14:19:07.368Z,40.27
2019-06-27T14:21:44.443Z,41.22
2019-06-27T14:24:17.382Z,40.31
2019-06-27T14:26:44.922Z,37.68
2019-06-27T14:29:14.661Z,37.69
2019-06-27T14:31:43.352Z,38.55
2019-06-27T14:34:12.311Z,37.73
2019-06-27T14:36:42.086Z,37.87
2019-06-27T14:39:10.837Z,37.89
2019-06-27T14:41:43.240Z,36.91
2019-06-27T14:44:12.341Z,36.22
2019-06-27T14:46:41.205Z,37.04
2019-06-27T14:49:10.009Z,35.44
2019-06-27T14:51:38.746Z,37.03
2019-06-27T14:54:07.647Z,37.01
2019-06-27T14:56:36.356Z,37.30
2019-06-27T14:59:05.468Z,38.46
2019-06-27T15:01:34.328Z,39.59
2019-06-27T15:04:06.002Z,39.34
2019-06-27T15:06:34.793Z,37.70
2019-06-27T15:09:03.729Z,37.89
2019-06-27T15:11:32.421Z,37.65
2019-06-27T15:14:01.213Z,33.63
2019-06-27T15:16:29.891Z,35.48
2019-06-27T15:18:58.602Z,36.51
2019-06-27T15:21:27.348Z,37.32
2019-06-27T15:23:56.082Z,38.01
2019-06-27T15:26:24.823Z,37.48
2019-06-27T15:28:53.498Z,37.15
2019-06-27T15:31:22.608Z,36.69
2019-06-27T15:33:51.331Z,37.69
2019-06-27T15:36:20.149Z,38.44
2019-06-27T15:38:48.969Z,39.02
2019-06-27T15:41:17.639Z,40.25
2019-06-27T15:43:46.486Z,40.83
2019-06-27T15:46:15.090Z,40.68
2019-06-27T15:48:44.132Z,39.90
2019-06-27T15:51:12.898Z,39.39
2019-06-27T15:53:41.601Z,39.93
2019-06-27T15:56:10.577Z,40.26
2019-06-27T15:58:39.319Z,39.37
2019-06-27T16:01:08.070Z,39.29
2019-06-27T16:03:36.723Z,39.48
2019-06-27T16:06:09.691Z,38.67
2019-06-27T16:08:35.895Z,38.32
2019-06-27T16:11:04.932Z,36.85
2019-06-27T16:13:33.912Z,36.71
2019-06-27T16:16:02.672Z,36.58
2019-06-27T16:18:31.406Z,36.84
2019-06-27T16:21:00.169Z,36.67
2019-06-27T16:23:28.948Z,36.01
2019-06-27T16:25:57.830Z,35.90
2019-06-27T16:28:27.306Z,35.60
2019-06-27T16:30:56.365Z,34.63
2019-06-27T16:33:25.208Z,34.17
2019-06-27T16:35:53.984Z,33.37
2019-06-27T16:38:22.808Z,33.35
2019-06-27T16:40:51.526Z,32.97
2019-06-27T16:43:20.503Z,32.91
2019-06-27T16:45:49.260Z,32.32
2019-06-27T16:48:18.200Z,31.45
2019-06-27T16:50:46.973Z,30.67
2019-06-27T16:53:16.008Z,30.64
2019-06-27T16:55:44.781Z,30.23
2019-06-27T16:58:13.543Z,30.36
2019-06-27T17:00:42.979Z,30.97
2019-06-27T17:03:11.767Z,31.45
2019-06-27T17:05:40.829Z,31.11
2019-06-27T17:08:09.875Z,30.77
2019-06-27T17:10:38.643Z,30.25
2019-06-27T17:13:07.518Z,29.99
2019-06-27T17:15:36.277Z,29.95
2019-06-27T17:18:05.051Z,29.61
2019-06-27T17:20:33.821Z,29.67
2019-06-27T17:23:05.415Z,29.41
2019-06-27T17:25:33.100Z,28.90
2019-06-27T17:28:02.063Z,28.16
2019-06-27T17:30:30.815Z,27.99
2019-06-27T17:33:02.527Z,27.85
2019-06-27T17:35:31.485Z,27.46
2019-06-27T17:38:00.173Z,26.89
2019-06-27T17:40:28.921Z,26.77
2019-06-27T17:42:57.859Z,26.48
2019-06-27T17:45:26.784Z,26.42
2019-06-27T17:47:56.083Z,26.41
2019-06-27T17:50:25.141Z,26.07
2019-06-27T17:52:54.398Z,25.67
2019-06-27T17:55:23.416Z,25.49
2019-06-27T17:57:52.415Z,25.09
2019-06-27T18:00:21.496Z,24.95
2019-06-27T18:02:50.494Z,24.88
2019-06-27T18:05:21.272Z,24.70
2019-06-27T18:07:50.003Z,24.67
2019-06-27T18:10:19.606Z,24.35
2019-06-27T18:12:48.427Z,24.16
2019-06-27T18:15:17.124Z,23.66
2019-06-27T18:17:46.113Z,23.73
2019-06-27T18:20:14.947Z,23.75
2019-06-27T18:22:43.718Z,23.68
2019-06-27T18:25:12.565Z,23.47
2019-06-27T18:27:41.366Z,23.30
2019-06-27T18:30:10.523Z,23.19
2019-06-27T18:32:39.553Z,23.12
2019-06-27T18:35:08.869Z,22.86
2019-06-27T18:37:37.656Z,22.53
2019-06-27T18:40:07.044Z,22.23
2019-06-27T18:42:36.132Z,22.05
2019-06-27T18:45:05.258Z,21.96
2019-06-27T18:47:34.008Z,21.89
2019-06-27T18:50:02.710Z,21.88
2019-06-27T18:52:31.741Z,21.73
2019-06-27T18:55:00.788Z,21.59
2019-06-27T18:57:29.542Z,21.39
2019-06-27T18:59:58.313Z,21.22
2019-06-27T19:02:27.006Z,21.06
2019-06-27T19:04:56.078Z,20.92
2019-06-27T19:07:25.255Z,20.67
2019-06-27T19:09:53.957Z,20.42
2019-06-27T19:12:22.642Z,20.17
2019-06-27T19:14:52.168Z,19.89
2019-06-27T19:17:20.836Z,19.60
2019-06-27T19:19:52.440Z,19.37
2019-06-27T19:22:43.631Z,19.13
2019-06-27T19:25:18.592Z,18.86
2019-06-27T19:27:47.278Z,18.60
2019-06-27T19:30:16.363Z,18.29
2019-06-27T19:32:45.420Z,18.20
2019-06-27T19:35:14.305Z,18.03
2019-06-27T19:37:43.312Z,17.95
2019-06-27T19:40:12.935Z,17.78
2019-06-27T19:42:41.782Z,17.56
2019-06-27T19:45:10.703Z,17.40
2019-06-27T19:47:39.474Z,17.18
2019-06-27T19:50:08.348Z,17.02
2019-06-27T19:52:37.319Z,16.95
2019-06-27T19:55:06.345Z,16.73
2019-06-27T19:57:35.245Z,16.48
2019-06-27T20:00:04.398Z,16.30
2019-06-27T20:02:33.489Z,16.10
2019-06-27T20:05:02.284Z,15.97
2019-06-27T20:07:31.007Z,15.89
2019-06-27T20:09:59.771Z,15.74
2019-06-27T20:12:28.847Z,15.61
2019-06-27T20:14:57.520Z,15.44
2019-06-27T20:17:26.194Z,15.37
2019-06-27T20:19:54.962Z,15.30
2019-06-27T20:22:23.678Z,15.31
2019-06-27T20:24:52.690Z,15.18
2019-06-27T20:27:21.476Z,15.04
2019-06-27T20:29:50.401Z,14.99
2019-06-27T20:32:19.069Z,14.96
2019-06-27T20:34:47.884Z,14.90
2019-06-27T20:37:16.589Z,14.86
2019-06-27T20:39:45.403Z,14.84
2019-06-27T20:42:17.542Z,14.83
2019-06-27T20:44:46.309Z,14.75
2019-06-27T20:47:17.944Z,14.72
2019-06-27T20:49:47.093Z,14.73
2019-06-27T20:52:15.861Z,14.67
2019-06-27T20:54:44.563Z,14.55
2019-06-27T20:57:13.570Z,14.48
2019-06-27T20:59:42.521Z,14.44
2019-06-27T21:02:11.290Z,14.38
2019-06-27T21:04:40.051Z,14.27
2019-06-27T21:07:09.938Z,14.14
2019-06-27T21:09:39.109Z,14.08
2019-06-27T21:12:07.912Z,14.02
2019-06-27T21:14:36.706Z,13.89
2019-06-27T21:17:05.552Z,13.79
2019-06-27T21:19:34.326Z,13.68
2019-06-27T21:22:03.524Z,13.58
2019-06-27T21:24:32.605Z,13.53
2019-06-27T21:27:01.717Z,13.57
2019-06-27T21:29:30.709Z,13.56
2019-06-27T21:32:02.721Z,13.56
2019-06-27T21:34:32.262Z,13.55
2019-06-27T21:37:00.946Z,13.59
2019-06-27T21:39:29.730Z,13.63
2019-06-27T21:41:58.724Z,13.59
2019-06-27T21:44:27.520Z,13.56
2019-06-27T21:46:56.226Z,13.55
2019-06-27T21:49:26.522Z,13.53
2019-06-27T21:51:55.617Z,13.48
2019-06-27T21:54:24.286Z,13.38
2019-06-27T21:56:53.267Z,13.31
2019-06-27T21:59:22.002Z,13.24
2019-06-27T22:01:51.030Z,13.14
2019-06-27T22:04:19.855Z,12.97
2019-06-27T22:06:48.518Z,12.85
2019-06-27T22:09:24.434Z,12.75
2019-06-27T22:11:48.192Z,12.69
2019-06-27T22:14:16.984Z,12.67
2019-06-27T22:16:45.735Z,12.67
2019-06-27T22:19:14.576Z,12.60
2019-06-27T22:21:43.255Z,12.55
2019-06-27T22:24:12.184Z,12.51
2019-06-27T22:26:41.167Z,12.41
2019-06-27T22:29:09.942Z,12.31
2019-06-27T22:31:38.703Z,12.24
2019-06-27T22:34:07.376Z,12.19
2019-06-27T22:36:36.109Z,12.07
2019-06-27T22:39:36.234Z,12.06
2019-06-27T22:42:11.165Z,12.09
2019-06-27T22:44:57.878Z,12.00
2019-06-27T22:47:44.589Z,11.96
2019-06-27T22:50:27.836Z,11.95
2019-06-27T22:53:06.099Z,11.90
2019-06-27T22:55:34.812Z,11.86
2019-06-27T22:58:03.779Z,11.73
2019-06-27T23:00:32.527Z,11.62
2019-06-27T23:03:01.557Z,11.49
2019-06-27T23:05:30.272Z,11.42
2019-06-27T23:07:59.197Z,11.35
2019-06-27T23:10:27.991Z,11.27
2019-06-27T23:12:56.669Z,11.19
2019-06-27T23:15:25.417Z,11.10
2019-06-27T23:17:54.191Z,11.04
2019-06-27T23:20:23.756Z,10.97
2019-06-27T23:22:52.613Z,10.93
2019-06-27T23:25:21.626Z,10.97
2019-06-27T23:27:50.334Z,11.10
2019-06-27T23:30:19.408Z,11.25
2019-06-27T23:32:48.211Z,11.32
2019-06-27T23:35:16.962Z,11.33
2019-06-27T23:37:45.631Z,11.31
2019-06-27T23:40:15.301Z,11.33
2019-06-27T23:42:44.356Z,11.26
2019-06-27T23:45:13.200Z,11.21
2019-06-27T23:47:41.966Z,11.18
2019-06-27T23:50:10.664Z,11.11
2019-06-27T23:52:39.687Z,11.00
2019-06-27T23:55:09.144Z,10.90
2019-06-27T23:57:37.843Z,10.83
